Time;durP1;ratioP1;P1;durP2;ratioP2;P2;SDS_P1;SDS_P2;PMS_P1;PMS_P2;Temp;Humidity;BMP_temperature;BMP_pressure;BME280_temperature;BME280_humidity;BME280_pressure;Samples;Min_cycle;Max_cycle;Signal;HPM_P1;HPM_P2
2022/01/01 00:02:16;;;;;;;90.78;50.63;;;;;;;8.83;53.43;94258.41;5022437;28;20041;-77
2022/01/01 00:04:42;;;;;;;93.95;48.40;;;;;;;8.62;54.12;94255.31;5026357;28;20029;-76
2022/01/01 00:07:08;;;;;;;98.90;47.90;;;;;;;8.59;53.76;94240.78;5013202;28;20051;-76
2022/01/01 00:09:34;;;;;;;84.20;46.13;;;;;;;8.46;54.36;94253.97;5018595;28;20063;-76
2022/01/01 00:11:59;;;;;;;89.45;44.72;;;;;;;8.67;53.94;94262.38;5026719;28;20521;-76
2022/01/01 00:14:25;;;;;;;88.95;44.13;;;;;;;8.68;53.89;94254.16;5015776;28;20045;-76
2022/01/01 00:16:50;;;;;;;82.75;43.67;;;;;;;8.51;54.08;94233.47;5023021;28;20108;-76
2022/01/01 00:19:17;;;;;;;93.60;43.53;;;;;;;8.64;53.97;94262.97;5023978;28;20565;-76
2022/01/01 00:21:43;;;;;;;83.57;44.45;;;;;;;8.27;53.73;94198.31;5020818;28;20158;-77
2022/01/01 00:24:10;;;;;;;78.57;44.03;;;;;;;8.66;54.00;94252.88;5009787;28;20042;-75
2022/01/01 00:26:35;;;;;;;83.43;43.47;;;;;;;8.62;54.07;94244.69;5025821;28;20064;-76
2022/01/01 00:29:01;;;;;;;88.97;42.72;;;;;;;8.21;54.32;94199.50;5030199;28;20055;-76
2022/01/01 00:31:27;;;;;;;78.53;43.22;;;;;;;8.52;54.13;94235.03;5023872;28;20104;-75
2022/01/01 00:33:52;;;;;;;91.68;43.22;;;;;;;8.45;53.98;94224.03;5012022;28;20041;-75
2022/01/01 00:36:18;;;;;;;80.20;42.85;;;;;;;8.57;53.96;94237.59;5019602;28;20076;-76
2022/01/01 00:38:43;;;;;;;99.28;44.03;;;;;;;8.64;53.81;94255.03;5024316;28;20036;-76
2022/01/01 00:41:09;;;;;;;80.75;42.42;;;;;;;8.61;53.65;94250.31;5011298;28;20037;-76
2022/01/01 00:43:34;;;;;;;81.75;41.28;;;;;;;8.55;53.91;94239.00;5009355;28;20086;-76
2022/01/01 00:46:00;;;;;;;78.18;41.38;;;;;;;8.59;53.59;94248.72;5017263;28;20035;-76
2022/01/01 00:48:25;;;;;;;86.00;42.58;;;;;;;8.63;53.70;94250.78;5025459;28;20033;-76
2022/01/01 00:50:50;;;;;;;81.18;41.28;;;;;;;8.21;53.74;94188.91;5016860;28;20127;-76
2022/01/01 00:53:16;;;;;;;76.70;42.05;;;;;;;8.40;53.50;94221.47;5019515;28;23035;-76
2022/01/01 00:55:41;;;;;;;69.85;38.72;;;;;;;8.61;53.39;94232.50;5022048;28;20037;-76
2022/01/01 00:58:07;;;;;;;76.70;40.33;;;;;;;8.47;52.66;94200.66;5001611;28;20029;-75
2022/01/01 01:00:32;;;;;;;70.10;35.67;;;;;;;8.47;53.07;94232.47;5020323;28;20126;-76
2022/01/01 01:02:58;;;;;;;77.68;41.38;;;;;;;8.08;53.07;94174.50;5012804;28;20041;-76
2022/01/01 01:05:23;;;;;;;79.85;39.70;;;;;;;8.05;53.94;94200.78;5023780;28;20089;-75
2022/01/01 01:07:49;;;;;;;81.43;39.60;;;;;;;8.06;54.24;94215.63;5025632;28;20094;-76
2022/01/01 01:10:15;;;;;;;75.30;37.90;;;;;;;8.00;54.59;94219.41;5017660;28;20090;-76
2022/01/01 01:12:44;;;;;;;77.30;39.75;;;;;;;7.79;54.50;94176.53;5022364;28;20065;-77
2022/01/01 01:15:17;;;;;;;73.57;38.38;;;;;;;8.00;54.55;94211.47;5014913;28;20256;-76
2022/01/01 01:17:47;;;;;;;76.00;38.22;;;;;;;7.66;55.66;94196.53;5026026;28;20056;-75
2022/01/01 01:20:13;;;;;;;69.35;36.63;;;;;;;7.53;56.13;94183.22;5018437;28;20159;-76
2022/01/01 01:22:38;;;;;;;76.05;35.97;;;;;;;7.80;55.77;94209.09;5013643;28;20036;-76
2022/01/01 01:25:04;;;;;;;77.78;38.33;;;;;;;7.70;55.22;94194.88;5022659;28;20025;-75
2022/01/01 01:27:30;;;;;;;79.30;38.50;;;;;;;7.74;55.64;94205.72;5015209;28;20033;-75
2022/01/01 01:29:58;;;;;;;71.50;34.28;;;;;;;7.69;55.43;94216.34;5016121;28;20042;-76
2022/01/01 01:32:25;;;;;;;75.72;36.88;;;;;;;7.49;55.24;94203.34;5016165;28;20037;-76
2022/01/01 01:34:51;;;;;;;65.07;34.03;;;;;;;7.36;55.86;94226.03;5018185;28;20140;-76
2022/01/01 01:37:16;;;;;;;70.55;33.63;;;;;;;7.33;55.85;94239.81;5015419;28;20033;-76
2022/01/01 01:39:42;;;;;;;71.82;36.47;;;;;;;7.36;55.60;94231.31;5016134;28;20045;-76
2022/01/01 01:42:07;;;;;;;69.72;35.10;;;;;;;7.25;55.94;94220.06;5019035;28;20075;-77
2022/01/01 01:44:37;;;;;;;71.85;37.28;;;;;;;7.30;55.95;94250.94;5016358;28;20052;-75
2022/01/01 01:47:13;;;;;;;79.82;38.28;;;;;;;7.15;56.76;94241.31;5015731;28;20056;-76
2022/01/01 01:49:38;;;;;;;76.80;37.97;;;;;;;7.04;56.57;94233.78;5018255;28;20037;-76
2022/01/01 01:52:04;;;;;;;64.22;32.85;;;;;;;6.99;57.14;94228.56;5017371;28;20056;-76
2022/01/01 01:54:29;;;;;;;58.55;31.70;;;;;;;7.25;56.46;94232.50;5015564;28;20519;-77
2022/01/01 01:56:55;;;;;;;76.40;36.88;;;;;;;7.16;56.88;94239.47;5014600;28;20525;-76
2022/01/01 01:59:21;;;;;;;66.50;32.35;;;;;;;7.07;56.81;94220.00;5015933;28;20037;-75
2022/01/01 02:01:46;;;;;;;63.38;32.47;;;;;;;7.07;56.71;94231.38;5004371;28;20294;-76
2022/01/01 02:04:12;;;;;;;57.75;29.20;;;;;;;7.18;56.99;94222.25;5023346;28;20037;-75
2022/01/01 02:06:41;;;;;;;57.85;27.67;;;;;;;7.23;56.58;94213.47;5001006;28;20041;-76
2022/01/01 02:09:08;;;;;;;45.60;24.83;;;;;;;7.37;56.33;94203.78;5013844;28;20140;-76
2022/01/01 02:11:39;;;;;;;62.17;28.27;;;;;;;7.45;55.82;94184.63;5023125;28;20582;-76
2022/01/01 02:14:13;;;;;;;47.35;24.70;;;;;;;7.47;55.62;94192.28;5014470;28;20088;-76
2022/01/01 02:16:56;;;;;;;43.28;22.80;;;;;;;7.56;54.79;94180.78;5020613;28;20014;-76
2022/01/01 02:19:26;;;;;;;42.03;20.77;;;;;;;7.60;55.22;94218.06;5016906;28;20428;-76
2022/01/01 02:21:53;;;;;;;47.28;23.77;;;;;;;7.36;55.92;94207.50;5018449;28;20398;-75
2022/01/01 02:24:19;;;;;;;46.70;22.60;;;;;;;7.15;57.14;94200.84;5013909;28;20387;-75
2022/01/01 02:26:44;;;;;;;48.58;20.92;;;;;;;7.18;56.79;94211.69;5021198;28;20078;-76
2022/01/01 02:29:10;;;;;;;40.78;20.55;;;;;;;6.95;57.13;94187.84;5024767;28;20034;-75
2022/01/01 02:31:36;;;;;;;38.42;19.35;;;;;;;7.01;57.46;94189.38;5023804;28;20327;-76
2022/01/01 02:34:08;;;;;;;37.75;19.88;;;;;;;6.99;57.23;94181.75;5018896;28;20130;-75
2022/01/01 02:36:44;;;;;;;38.53;19.13;;;;;;;6.89;56.86;94171.28;5040558;28;20132;-76
2022/01/01 02:39:14;;;;;;;40.70;18.80;;;;;;;6.70;57.61;94202.91;5026502;28;20141;-75
2022/01/01 02:41:41;;;;;;;38.65;18.80;;;;;;;6.76;57.47;94211.56;5021447;28;20060;-75
2022/01/01 02:44:06;;;;;;;43.28;22.38;;;;;;;6.75;57.91;94202.09;5022184;28;20074;-76
2022/01/01 02:46:33;;;;;;;41.05;23.55;;;;;;;6.88;57.40;94187.41;5026127;28;20487;-75
2022/01/01 02:48:59;;;;;;;53.17;26.38;;;;;;;6.65;58.45;94192.38;5012490;28;20056;-75
2022/01/01 02:51:24;;;;;;;57.63;28.35;;;;;;;6.73;58.29;94193.63;5022741;28;20033;-76
2022/01/01 02:53:49;;;;;;;57.45;27.92;;;;;;;6.91;57.85;94190.28;5022043;28;20258;-75
2022/01/01 02:56:15;;;;;;;74.97;29.92;;;;;;;7.05;57.30;94193.03;5021894;28;20080;-76
2022/01/01 02:58:41;;;;;;;59.05;29.17;;;;;;;7.14;56.80;94188.72;5017062;28;20051;-76
2022/01/01 03:01:07;;;;;;;56.22;28.08;;;;;;;7.11;56.78;94184.75;5014969;28;20029;-75
2022/01/01 03:03:33;;;;;;;57.97;26.88;;;;;;;7.04;56.50;94183.53;5020514;28;20114;-75
2022/01/01 03:05:58;;;;;;;40.80;22.40;;;;;;;6.65;56.98;94142.16;5022202;28;20398;-76
2022/01/01 03:08:23;;;;;;;45.00;23.83;;;;;;;6.95;57.51;94167.47;5014018;28;20075;-75
2022/01/01 03:10:49;;;;;;;43.47;22.15;;;;;;;6.94;57.51;94157.22;5026245;28;20026;-76
2022/01/01 03:13:16;;;;;;;47.88;22.40;;;;;;;6.97;57.05;94140.78;5025485;28;20020;-75
2022/01/01 03:15:41;;;;;;;47.33;22.45;;;;;;;6.80;56.99;94147.28;5015905;28;20117;-76
2022/01/01 03:18:07;;;;;;;40.55;20.90;;;;;;;6.94;57.71;94157.22;5017384;28;20109;-75
2022/01/01 03:20:38;;;;;;;42.70;21.65;;;;;;;7.03;57.36;94140.44;5018085;28;20450;-76
2022/01/01 03:23:04;;;;;;;39.22;20.65;;;;;;;7.00;57.09;94156.84;5006054;28;20314;-76
2022/01/01 03:25:29;;;;;;;38.47;19.98;;;;;;;7.12;57.21;94156.47;5021448;28;20075;-75
2022/01/01 03:27:55;;;;;;;36.45;20.42;;;;;;;7.02;56.90;94127.50;5014348;28;20609;-75
2022/01/01 03:30:20;;;;;;;37.70;18.35;;;;;;;7.18;56.94;94134.19;5022725;28;20554;-75
2022/01/01 03:32:46;;;;;;;39.53;20.20;;;;;;;7.37;57.17;94150.06;5020097;28;20028;-76
2022/01/01 03:35:12;;;;;;;31.92;17.77;;;;;;;7.26;57.12;94138.81;5014838;28;20061;-76
2022/01/01 03:37:37;;;;;;;37.22;17.83;;;;;;;7.17;57.08;94135.25;5026242;28;20029;-76
2022/01/01 03:40:04;;;;;;;30.58;17.67;;;;;;;7.16;57.64;94162.75;5018508;28;20028;-76
2022/01/01 03:42:30;;;;;;;40.30;20.00;;;;;;;6.82;59.20;94160.22;5014561;28;20552;-76
2022/01/01 03:44:55;;;;;;;29.25;17.80;;;;;;;7.09;59.04;94175.56;5028663;28;20512;-75
2022/01/01 03:47:21;;;;;;;42.95;18.60;;;;;;;6.93;59.49;94168.84;5027311;28;20069;-76
2022/01/01 03:49:46;;;;;;;39.47;21.38;;;;;;;7.10;59.09;94174.47;5028668;28;20025;-75
2022/01/01 03:52:12;;;;;;;40.50;20.15;;;;;;;7.20;58.48;94179.63;5021633;28;20587;-75
2022/01/01 03:54:37;;;;;;;40.03;19.95;;;;;;;7.08;58.50;94158.88;5019044;28;20060;-76
2022/01/01 03:57:03;;;;;;;35.90;18.15;;;;;;;7.13;58.76;94168.63;5022439;28;20078;-76
2022/01/01 03:59:28;;;;;;;171.00;53.53;;;;;;;7.12;58.70;94151.16;5023946;28;20401;-76
2022/01/01 04:01:57;;;;;;;100.88;37.08;;;;;;;7.31;58.06;94146.69;5020797;28;20044;-76
2022/01/01 04:04:25;;;;;;;49.90;20.38;;;;;;;7.33;57.83;94138.50;5023403;28;20025;-76
2022/01/01 04:06:51;;;;;;;41.53;18.98;;;;;;;7.12;58.64;94145.88;5027143;28;20151;-75
2022/01/01 04:09:16;;;;;;;38.55;17.65;;;;;;;7.03;58.96;94115.84;5017813;28;20640;-75
2022/01/01 04:11:42;;;;;;;34.67;17.73;;;;;;;7.07;58.81;94109.69;5006371;28;20563;-75
2022/01/01 04:14:13;;;;;;;33.88;18.63;;;;;;;6.81;59.24;94096.00;5028818;28;20402;-75
2022/01/01 04:16:52;;;;;;;37.10;18.10;;;;;;;7.39;58.00;94121.44;5024587;28;20022;-75
2022/01/01 04:19:17;;;;;;;36.08;17.73;;;;;;;7.43;58.29;94130.41;5028140;28;20034;-75
2022/01/01 04:21:42;;;;;;;35.75;17.67;;;;;;;6.83;59.82;94120.31;5022784;28;20033;-75
2022/01/01 04:24:08;;;;;;;34.97;17.25;;;;;;;7.00;59.69;94111.91;5016771;28;20093;-75
2022/01/01 04:26:33;;;;;;;32.45;15.90;;;;;;;7.02;58.98;94091.25;5022697;28;20029;-76
2022/01/01 04:28:59;;;;;;;34.75;16.98;;;;;;;7.01;59.06;94091.53;5024085;28;20401;-75
2022/01/01 04:31:25;;;;;;;31.45;16.25;;;;;;;7.09;59.08;94098.84;5020887;28;20453;-76
2022/01/01 04:33:50;;;;;;;35.30;16.98;;;;;;;6.89;59.35;94097.25;5029393;28;20044;-75
2022/01/01 04:36:16;;;;;;;80.93;34.38;;;;;;;7.02;59.26;94090.47;5023930;28;20512;-75
2022/01/01 04:38:42;;;;;;;56.65;24.90;;;;;;;7.26;58.31;94113.16;5018898;28;20139;-77
2022/01/01 04:41:17;;;;;;;50.92;22.80;;;;;;;7.17;58.63;94120.16;5024597;28;20048;-76
2022/01/01 04:43:43;;;;;;;40.83;19.52;;;;;;;7.33;58.03;94127.91;5013737;28;20033;-76
2022/01/01 04:46:10;;;;;;;39.97;19.45;;;;;;;7.07;58.07;94085.91;5029298;28;20151;-75
2022/01/01 04:48:37;;;;;;;33.88;16.08;;;;;;;7.09;58.12;94080.34;5025484;28;20038;-76
2022/01/01 04:51:07;;;;;;;29.52;16.92;;;;;;;7.23;57.78;94087.28;5017279;28;21012;-76
2022/01/01 04:53:39;;;;;;;28.67;14.90;;;;;;;7.18;58.03;94105.88;5021131;28;20064;-76
2022/01/01 04:56:07;;;;;;;34.75;15.75;;;;;;;7.16;58.13;94105.34;5018291;28;20048;-76
2022/01/01 04:58:34;;;;;;;29.23;14.30;;;;;;;7.11;58.04;94094.06;5020937;28;20025;-77
2022/01/01 05:00:59;;;;;;;33.72;16.63;;;;;;;7.00;58.55;94103.16;5026707;28;20527;-76
2022/01/01 05:03:25;;;;;;;68.10;22.23;;;;;;;7.01;58.65;94089.69;5017206;28;20041;-76
2022/01/01 05:05:50;;;;;;;51.92;20.38;;;;;;;6.98;58.90;94076.25;5025847;28;20098;-76
2022/01/01 05:08:21;;;;;;;32.70;18.08;;;;;;;6.25;61.43;94097.66;5023618;28;20577;-76
2022/01/01 05:10:46;;;;;;;40.03;17.92;;;;;;;6.87;60.15;94104.66;5015585;28;20316;-76
2022/01/01 05:13:13;;;;;;;38.17;18.23;;;;;;;6.78;59.18;94086.00;5025250;28;20024;-76
2022/01/01 05:15:39;;;;;;;34.92;19.52;;;;;;;6.18;61.42;94145.50;5021293;28;20344;-75
2022/01/01 05:18:04;;;;;;;42.83;19.17;;;;;;;6.13;62.48;94142.09;5004964;28;20509;-75
2022/01/01 05:20:30;;;;;;;39.80;17.90;;;;;;;6.53;61.21;94138.31;5027207;28;20044;-75
2022/01/01 05:22:56;;;;;;;41.05;19.25;;;;;;;6.54;61.04;94153.91;5017325;28;20061;-76
2022/01/01 05:25:21;;;;;;;36.92;16.40;;;;;;;6.73;60.71;94162.69;5027801;28;20047;-76
2022/01/01 05:27:47;;;;;;;28.42;15.73;;;;;;;6.79;60.32;94155.50;5025005;28;20472;-75
2022/01/01 05:30:12;;;;;;;24.73;13.43;;;;;;;6.97;59.98;94159.28;5014043;28;20056;-76
2022/01/01 05:32:38;;;;;;;30.48;13.10;;;;;;;7.00;59.82;94158.69;5020494;28;20061;-76
2022/01/01 05:35:04;;;;;;;24.48;13.15;;;;;;;6.93;60.23;94167.00;5027428;28;20726;-76
2022/01/01 05:37:30;;;;;;;25.50;12.73;;;;;;;6.77;60.91;94152.34;5027867;28;20103;-76
2022/01/01 05:39:55;;;;;;;27.58;12.52;;;;;;;6.76;60.97;94158.69;5018558;28;20038;-76
2022/01/01 05:42:21;;;;;;;24.90;12.40;;;;;;;6.95;59.72;94153.47;5026516;28;20049;-75
2022/01/01 05:44:46;;;;;;;22.23;11.82;;;;;;;7.03;59.10;94160.81;5017960;28;20030;-76
2022/01/01 05:47:11;;;;;;;25.20;13.23;;;;;;;6.98;59.26;94189.94;5010171;28;20152;-75
2022/01/01 05:49:37;;;;;;;25.08;11.63;;;;;;;6.68;59.52;94154.81;5020179;28;20063;-75
2022/01/01 05:52:03;;;;;;;19.73;10.45;;;;;;;6.92;58.91;94180.47;5004633;28;20548;-76
2022/01/01 05:54:28;;;;;;;16.60;10.27;;;;;;;6.96;58.73;94168.28;5018378;28;20384;-76
2022/01/01 05:56:54;;;;;;;19.98;10.60;;;;;;;7.09;58.25;94164.97;5021279;28;20616;-76
2022/01/01 05:59:19;;;;;;;41.17;19.08;;;;;;;7.09;58.25;94144.56;5020987;28;20037;-76
2022/01/01 06:01:45;;;;;;;36.78;16.35;;;;;;;7.18;58.17;94147.41;5023664;28;20423;-75
2022/01/01 06:04:10;;;;;;;34.92;17.33;;;;;;;7.15;56.74;94129.44;5010669;28;20024;-76
2022/01/01 06:06:36;;;;;;;27.67;15.02;;;;;;;7.01;57.34;94147.84;5022190;28;20121;-75
2022/01/01 06:09:01;;;;;;;25.92;14.88;;;;;;;7.02;57.79;94164.50;5018382;28;20329;-76
2022/01/01 06:11:27;;;;;;;25.25;12.75;;;;;;;6.93;57.90;94139.75;5024300;28;20029;-76
2022/01/01 06:13:52;;;;;;;22.90;12.55;;;;;;;6.66;58.15;94108.59;5007689;28;20122;-75
2022/01/01 06:16:17;;;;;;;22.88;12.88;;;;;;;6.99;58.21;94152.66;5017101;28;20944;-76
2022/01/01 06:18:43;;;;;;;43.45;18.02;;;;;;;6.37;59.37;94119.19;5027204;28;20037;-76
2022/01/01 06:21:09;;;;;;;30.33;15.80;;;;;;;6.13;62.09;94163.22;5018635;28;20073;-76
2022/01/01 06:23:37;;;;;;;26.00;12.38;;;;;;;5.40;64.75;94142.06;5020799;28;20045;-76
2022/01/01 06:26:04;;;;;;;24.27;13.85;;;;;;;5.72;64.26;94147.69;5017759;28;20071;-75
2022/01/01 06:28:29;;;;;;;28.92;13.20;;;;;;;5.80;64.22;94149.72;5025811;28;20116;-76
2022/01/01 06:30:55;;;;;;;28.85;13.60;;;;;;;5.85;64.54;94162.09;5020942;28;20383;-77
2022/01/01 06:33:21;;;;;;;23.63;11.43;;;;;;;5.47;65.67;94139.94;5021583;28;20615;-75
2022/01/01 06:35:48;;;;;;;20.58;10.52;;;;;;;5.73;65.97;94146.59;5021682;28;20029;-75
2022/01/01 06:38:14;;;;;;;33.83;14.45;;;;;;;5.62;67.41;94153.03;5016070;28;20088;-76
2022/01/01 06:40:44;;;;;;;29.65;13.52;;;;;;;5.75;66.91;94152.41;5022017;28;20067;-75
2022/01/01 06:43:12;;;;;;;18.65;7.43;;;;;;;5.87;66.73;94155.47;5021160;28;20652;-75
2022/01/01 06:45:38;;;;;;;3.83;2.17;;;;;;;6.44;67.51;94140.78;5023326;28;20037;-75
2022/01/01 06:48:04;;;;;;;16.38;6.90;;;;;;;6.42;66.56;94146.34;5015547;28;20045;-74
2022/01/01 06:50:29;;;;;;;25.92;12.50;;;;;;;6.23;64.94;94171.09;5020928;28;20033;-75
2022/01/01 06:52:58;;;;;;;30.30;14.93;;;;;;;5.32;68.60;94159.25;5022049;28;20063;-75
2022/01/01 06:55:24;;;;;;;28.83;14.93;;;;;;;5.10;69.50;94170.16;5019804;28;20021;-75
2022/01/01 06:57:49;;;;;;;29.42;15.68;;;;;;;5.78;68.35;94202.00;5019482;28;20087;-74
2022/01/01 07:00:18;;;;;;;28.60;15.10;;;;;;;5.93;67.31;94191.34;5018850;28;20048;-74
2022/01/01 07:02:52;;;;;;;31.85;15.77;;;;;;;5.73;67.30;94201.22;5023121;28;20791;-74
2022/01/01 07:05:17;;;;;;;35.75;17.27;;;;;;;5.56;68.23;94169.94;5008881;28;20060;-74
2022/01/01 07:07:43;;;;;;;36.85;17.55;;;;;;;4.39;72.57;94189.81;5024412;28;20045;-74
2022/01/01 07:10:10;;;;;;;31.45;15.82;;;;;;;4.91;72.45;94194.72;5008257;28;20399;-75
2022/01/01 07:12:37;;;;;;;31.70;17.75;;;;;;;5.24;71.23;94188.81;5015228;28;20029;-74
2022/01/01 07:15:06;;;;;;;46.83;19.85;;;;;;;5.60;70.15;94201.84;5023123;28;20041;-74
2022/01/01 07:17:31;;;;;;;33.72;17.33;;;;;;;5.63;69.24;94211.88;5022329;28;20030;-75
2022/01/01 07:19:57;;;;;;;36.33;16.02;;;;;;;5.94;68.14;94211.41;5024206;28;20531;-74
2022/01/01 07:22:22;;;;;;;40.72;18.40;;;;;;;6.10;67.28;94206.03;5025597;28;20442;-76
2022/01/01 07:24:49;;;;;;;18.70;9.52;;;;;;;6.08;67.77;94202.84;5009392;28;20029;-74
2022/01/01 07:27:15;;;;;;;14.43;7.18;;;;;;;6.28;68.59;94208.03;5015580;28;20501;-75
2022/01/01 07:29:41;;;;;;;24.17;12.43;;;;;;;6.44;68.11;94214.78;5025566;28;20040;-75
2022/01/01 07:32:06;;;;;;;18.25;8.95;;;;;;;6.40;67.97;94185.50;5026197;28;20110;-75
2022/01/01 07:34:32;;;;;;;3.03;1.27;;;;;;;7.21;65.42;94195.22;5031853;28;20032;-75
2022/01/01 07:36:57;;;;;;;1.08;0.90;;;;;;;7.54;65.08;94201.44;5019265;28;20045;-75
2022/01/01 07:39:23;;;;;;;0.70;0.70;;;;;;;7.70;64.13;94188.81;5024859;28;20085;-75
2022/01/01 07:41:48;;;;;;;1.02;0.80;;;;;;;8.07;62.80;94196.78;5022227;28;20036;-75
2022/01/01 07:44:14;;;;;;;0.73;0.73;;;;;;;8.34;61.37;94211.22;5024234;28;20250;-76
2022/01/01 07:46:41;;;;;;;0.75;0.75;;;;;;;8.58;60.16;94210.03;5027684;28;20451;-75
2022/01/01 07:49:07;;;;;;;0.88;0.73;;;;;;;8.77;60.09;94225.09;5022625;28;20029;-75
2022/01/01 07:51:33;;;;;;;1.10;0.98;;;;;;;8.91;58.86;94210.00;5020735;28;20516;-75
2022/01/01 07:53:58;;;;;;;1.80;1.02;;;;;;;8.98;57.82;94202.44;5009518;28;20508;-75
2022/01/01 07:56:24;;;;;;;3.10;1.10;;;;;;;9.13;57.32;94207.50;5025574;28;20445;-75
2022/01/01 07:58:49;;;;;;;1.75;1.20;;;;;;;9.36;56.96;94209.19;5026793;28;20025;-76
2022/01/01 08:01:15;;;;;;;2.20;1.15;;;;;;;9.53;55.82;94210.47;5007410;28;20032;-75
2022/01/01 08:03:40;;;;;;;2.78;1.50;;;;;;;9.59;55.92;94204.72;5006922;28;20029;-75
2022/01/01 08:06:06;;;;;;;4.93;1.88;;;;;;;9.59;55.64;94183.50;5025536;28;20037;-75
2022/01/01 08:08:31;;;;;;;2.78;1.00;;;;;;;9.76;54.41;94188.19;5018524;28;20932;-75
2022/01/01 08:10:58;;;;;;;2.53;1.00;;;;;;;9.81;54.20;94180.13;5014461;28;20041;-75
2022/01/01 08:13:24;;;;;;;3.17;2.15;;;;;;;10.03;53.86;94204.06;5019642;28;20048;-75
2022/01/01 08:15:54;;;;;;;1.30;1.15;;;;;;;10.07;53.30;94207.72;5026673;28;20536;-75
2022/01/01 08:18:20;;;;;;;0.98;0.98;;;;;;;10.12;53.11;94207.56;5018717;28;20048;-76
2022/01/01 08:20:46;;;;;;;1.17;0.98;;;;;;;10.08;53.13;94190.66;5020024;28;20041;-76
2022/01/01 08:23:12;;;;;;;1.58;1.20;;;;;;;10.23;52.53;94211.59;5023278;28;20048;-76
2022/01/01 08:25:39;;;;;;;1.23;0.93;;;;;;;10.16;52.59;94202.47;5024724;28;20440;-76
2022/01/01 08:28:06;;;;;;;2.60;1.10;;;;;;;10.19;52.65;94197.31;5008079;28;20036;-75
2022/01/01 08:30:32;;;;;;;2.00;1.30;;;;;;;10.40;52.72;94221.63;5004856;28;20401;-75
2022/01/01 08:33:01;;;;;;;2.60;1.02;;;;;;;10.47;52.01;94219.31;5026231;28;20056;-75
2022/01/01 08:35:34;;;;;;;2.05;1.30;;;;;;;10.48;51.69;94212.91;5028460;28;20578;-76
2022/01/01 08:38:03;;;;;;;2.60;1.17;;;;;;;10.10;51.64;94148.63;5023886;28;20544;-75
2022/01/01 08:40:29;;;;;;;1.23;1.02;;;;;;;10.56;51.80;94222.03;5021774;28;20037;-75
2022/01/01 08:42:54;;;;;;;2.47;2.10;;;;;;;10.52;51.67;94194.47;5020000;28;20094;-75
2022/01/01 08:45:21;;;;;;;0.90;0.88;;;;;;;10.72;51.27;94218.69;5029772;28;20047;-75
2022/01/01 08:47:46;;;;;;;1.52;1.10;;;;;;;10.85;50.84;94234.91;5005140;28;20558;-75
2022/01/01 08:50:12;;;;;;;1.85;1.10;;;;;;;10.76;50.51;94228.75;5022730;28;20056;-75
2022/01/01 08:52:38;;;;;;;1.38;0.73;;;;;;;10.69;51.45;94213.22;5005212;28;20032;-74
2022/01/01 08:55:08;;;;;;;1.55;1.17;;;;;;;10.81;51.33;94233.94;5026487;28;20026;-76
2022/01/01 08:57:34;;;;;;;1.67;1.27;;;;;;;10.78;50.70;94237.19;5025838;28;20139;-75
2022/01/01 09:00:02;;;;;;;1.90;1.05;;;;;;;10.78;50.88;94232.66;5016757;28;20051;-75
2022/01/01 09:02:27;;;;;;;2.35;1.05;;;;;;;10.65;50.88;94217.56;5025610;28;20036;-75
2022/01/01 09:04:53;;;;;;;2.58;1.00;;;;;;;10.76;51.12;94226.84;5025127;28;20508;-76
2022/01/01 09:07:18;;;;;;;2.00;1.17;;;;;;;10.85;51.01;94246.34;5022157;28;20066;-75
2022/01/01 09:09:45;;;;;;;1.33;1.08;;;;;;;10.84;51.16;94244.75;5015240;28;20087;-75
2022/01/01 09:12:11;;;;;;;1.30;1.20;;;;;;;11.00;50.75;94267.22;5009887;28;20052;-76
2022/01/01 09:14:38;;;;;;;1.80;1.35;;;;;;;10.97;50.95;94267.84;5023534;28;20532;-76
2022/01/01 09:17:06;;;;;;;2.45;1.63;;;;;;;10.82;51.04;94254.91;5024776;28;20495;-75
2022/01/01 09:19:32;;;;;;;1.77;1.15;;;;;;;10.94;50.68;94252.50;5014916;28;20039;-75
2022/01/01 09:21:57;;;;;;;1.88;1.08;;;;;;;11.04;50.21;94254.91;5018439;28;20073;-76
2022/01/01 09:24:23;;;;;;;1.33;1.23;;;;;;;10.99;50.25;94257.69;5023579;28;20510;-75
2022/01/01 09:26:48;;;;;;;1.65;1.20;;;;;;;11.19;49.85;94261.72;5021643;28;20144;-75
2022/01/01 09:29:14;;;;;;;2.17;1.20;;;;;;;11.27;50.45;94263.63;5029379;28;20057;-75
2022/01/01 09:31:41;;;;;;;1.50;1.00;;;;;;;11.33;49.48;94265.06;5000657;28;20075;-76
2022/01/01 09:34:07;;;;;;;2.45;1.58;;;;;;;11.28;49.81;94245.78;5028662;28;20125;-75
2022/01/01 09:36:35;;;;;;;3.70;1.08;;;;;;;11.52;50.17;94255.00;5019858;28;20451;-76
2022/01/01 09:39:02;;;;;;;1.27;0.90;;;;;;;11.60;50.21;94245.44;5014317;28;20433;-76
2022/01/01 09:41:28;;;;;;;2.00;1.10;;;;;;;11.80;49.52;94265.44;5021925;28;20037;-75
2022/01/01 09:43:54;;;;;;;1.38;1.05;;;;;;;11.66;49.54;94244.22;5020612;28;20047;-76
2022/01/01 09:46:20;;;;;;;1.42;1.33;;;;;;;11.68;49.55;94250.03;5011734;28;20025;-76
2022/01/01 09:48:48;;;;;;;1.63;1.40;;;;;;;11.72;48.90;94269.66;5019387;28;20049;-75
2022/01/01 09:51:14;;;;;;;1.42;1.23;;;;;;;11.66;48.90;94270.09;5021485;28;20071;-76
2022/01/01 09:53:40;;;;;;;1.92;1.15;;;;;;;11.50;48.91;94253.69;5023759;28;20042;-75
2022/01/01 09:56:06;;;;;;;2.10;1.15;;;;;;;11.65;48.97;94277.28;5025080;28;20672;-76
2022/01/01 09:58:33;;;;;;;5.25;1.60;;;;;;;11.63;48.58;94271.50;5014431;28;20024;-76
2022/01/01 10:01:00;;;;;;;2.15;1.10;;;;;;;11.67;48.32;94277.00;5023153;28;20677;-76
2022/01/01 10:03:41;;;;;;;1.50;1.40;;;;;;;11.66;48.11;94276.19;5025756;28;20064;-76
2022/01/01 10:06:18;;;;;;;2.17;1.33;;;;;;;11.53;48.36;94266.44;5019324;28;20046;-76
2022/01/01 10:08:59;;;;;;;2.28;1.58;;;;;;;11.18;48.21;94214.88;5028413;28;20643;-76
2022/01/01 10:11:27;;;;;;;2.03;1.50;;;;;;;11.58;48.41;94295.63;5026596;28;20040;-76
2022/01/01 10:13:52;;;;;;;1.77;1.48;;;;;;;11.51;48.98;94280.06;5008080;28;20515;-76
2022/01/01 10:16:18;;;;;;;1.50;1.30;;;;;;;11.53;49.42;94293.88;5025274;28;20033;-76
2022/01/01 10:18:46;;;;;;;4.57;1.70;;;;;;;11.56;50.11;94295.13;5019490;28;20517;-75
2022/01/01 10:21:23;;;;;;;2.10;1.63;;;;;;;11.45;50.15;94291.91;5024373;28;20114;-76
2022/01/01 10:23:56;;;;;;;4.22;2.53;;;;;;;11.52;50.55;94294.16;5022989;28;20045;-76
2022/01/01 10:29:20;;;;;;;3.05;1.70;;;;;;;11.80;49.92;94276.88;5022923;28;20126;-76
2022/01/01 10:32:10;;;;;;;2.63;1.40;;;;;;;11.72;48.93;94256.31;5018694;28;20124;-76
2022/01/01 10:34:46;;;;;;;2.20;1.38;;;;;;;11.72;49.44;94264.31;5013906;28;20170;-76
2022/01/01 10:37:15;;;;;;;1.80;1.30;;;;;;;11.72;48.20;94258.19;5006938;28;20032;-76
2022/01/01 10:39:51;;;;;;;1.92;1.73;;;;;;;11.67;48.07;94245.03;5019404;28;20037;-76
2022/01/01 10:42:17;;;;;;;2.13;1.40;;;;;;;11.58;48.25;94240.47;5022758;28;20044;-76
2022/01/01 10:44:47;;;;;;;2.53;1.40;;;;;;;11.60;47.76;94245.44;5021722;28;20051;-76
2022/01/01 10:47:21;;;;;;;3.05;1.40;;;;;;;11.64;48.18;94250.97;5020161;28;20758;-76
2022/01/01 10:52:15;;;;;;;1.45;1.30;;;;;;;11.76;48.62;94240.50;5025461;28;20029;-76
2022/01/01 10:54:48;;;;;;;2.40;1.27;;;;;;;11.37;48.56;94177.34;5028375;28;20029;-75
2022/01/01 10:57:14;;;;;;;2.50;1.80;;;;;;;11.76;48.69;94227.97;5015303;28;20528;-76
2022/01/01 10:59:40;;;;;;;2.45;1.70;;;;;;;11.88;48.15;94232.69;5024151;28;20032;-76
2022/01/01 11:02:06;;;;;;;2.35;1.58;;;;;;;11.98;47.87;94219.84;5024512;28;20049;-76
2022/01/01 11:04:33;;;;;;;2.13;1.50;;;;;;;12.00;46.60;94233.66;5026943;28;20417;-76
2022/01/01 11:06:59;;;;;;;2.42;1.33;;;;;;;11.97;46.62;94223.63;5022342;28;20038;-76
2022/01/01 11:09:26;;;;;;;1.73;1.35;;;;;;;11.83;46.86;94212.28;5027171;28;20046;-76
2022/01/01 11:11:52;;;;;;;4.50;1.65;;;;;;;11.85;46.59;94220.75;5022249;28;20172;-75
2022/01/01 11:14:18;;;;;;;1.83;1.25;;;;;;;11.59;47.35;94177.28;5025432;28;20029;-76
2022/01/01 11:16:44;;;;;;;2.10;1.63;;;;;;;11.89;46.96;94240.38;5024596;28;20948;-76
2022/01/01 11:19:11;;;;;;;2.97;1.95;;;;;;;11.94;47.59;94237.56;5024139;28;20072;-76
2022/01/01 11:21:37;;;;;;;2.75;1.67;;;;;;;11.70;46.92;94205.22;5023506;28;20045;-75
2022/01/01 11:24:03;;;;;;;2.40;1.77;;;;;;;12.00;46.73;94233.66;5008367;28;20045;-76
2022/01/01 11:26:29;;;;;;;2.97;1.75;;;;;;;11.76;46.25;94227.97;5026056;28;20064;-76
2022/01/01 11:28:55;;;;;;;2.97;1.88;;;;;;;11.65;46.65;94224.00;5021415;28;20112;-76
2022/01/01 11:31:21;;;;;;;3.28;1.75;;;;;;;11.32;46.27;94170.28;5022828;28;20044;-76
2022/01/01 11:33:54;;;;;;;4.43;2.47;;;;;;;11.55;46.55;94210.97;5028171;28;20053;-76